sensor_id;sensor_type;location;lat;lon;timestamp;pressure;altitude;pressure_sealevel;temperature;humidity
11830;BME280;5972;42.134;24.718;2023-11-18T00:01:46;98714.19;;;10.62;100.00
11830;BME280;5972;42.134;24.718;2023-11-18T00:04:13;98699.03;;;10.57;100.00
11830;BME280;5972;42.134;24.718;2023-11-18T00:06:43;98723.13;;;10.66;100.00
11830;BME280;5972;42.134;24.718;2023-11-18T00:09:10;98734.72;;;10.66;100.00
11830;BME280;5972;42.134;24.718;2023-11-18T00:11:39;98732.50;;;10.72;100.00
11830;BME280;5972;42.134;24.718;2023-11-18T00:14:07;98729.47;;;10.77;100.00
11830;BME280;5972;42.134;24.718;2023-11-18T00:16:35;98729.13;;;10.78;100.00
11830;BME280;5972;42.134;24.718;2023-11-18T00:19:03;98736.41;;;10.74;100.00
11830;BME280;5972;42.134;24.718;2023-11-18T00:21:31;98735.56;;;10.70;100.00
11830;BME280;5972;42.134;24.718;2023-11-18T00:23:59;98745.66;;;10.73;100.00
11830;BME280;5972;42.134;24.718;2023-11-18T00:26:26;98731.72;;;10.71;100.00
11830;BME280;5972;42.134;24.718;2023-11-18T00:28:54;98731.81;;;10.78;100.00
11830;BME280;5972;42.134;24.718;2023-11-18T00:31:21;98727.19;;;10.79;100.00
11830;BME280;5972;42.134;24.718;2023-11-18T00:33:48;98722.88;;;10.74;100.00
11830;BME280;5972;42.134;24.718;2023-11-18T00:36:15;98721.78;;;10.79;100.00
11830;BME280;5972;42.134;24.718;2023-11-18T00:38:42;98726.88;;;10.84;100.00
11830;BME280;5972;42.134;24.718;2023-11-18T00:41:10;98726.16;;;10.87;100.00
11830;BME280;5972;42.134;24.718;2023-11-18T00:43:38;98723.44;;;10.87;100.00
11830;BME280;5972;42.134;24.718;2023-11-18T00:46:04;98722.75;;;10.94;100.00
11830;BME280;5972;42.134;24.718;2023-11-18T00:48:32;98731.41;;;11.03;100.00
11830;BME280;5972;42.134;24.718;2023-11-18T00:50:58;98736.19;;;11.13;100.00
11830;BME280;5972;42.134;24.718;2023-11-18T00:53:25;98715.56;;;11.05;100.00
11830;BME280;5972;42.134;24.718;2023-11-18T00:55:52;98734.31;;;11.17;100.00
11830;BME280;5972;42.134;24.718;2023-11-18T00:58:20;98749.09;;;11.23;100.00
11830;BME280;5972;42.134;24.718;2023-11-18T01:00:47;98752.22;;;11.25;100.00
11830;BME280;5972;42.134;24.718;2023-11-18T01:03:14;98754.53;;;11.26;100.00
11830;BME280;5972;42.134;24.718;2023-11-18T01:05:41;98751.13;;;11.30;100.00
11830;BME280;5972;42.134;24.718;2023-11-18T01:08:08;98747.28;;;11.31;100.00
11830;BME280;5972;42.134;24.718;2023-11-18T01:10:35;98761.50;;;11.24;100.00
11830;BME280;5972;42.134;24.718;2023-11-18T01:13:02;98758.81;;;11.27;100.00
11830;BME280;5972;42.134;24.718;2023-11-18T01:15:30;98769.66;;;11.27;100.00
11830;BME280;5972;42.134;24.718;2023-11-18T01:17:58;98765.81;;;11.29;100.00
11830;BME280;5972;42.134;24.718;2023-11-18T01:20:25;98778.78;;;11.16;100.00
11830;BME280;5972;42.134;24.718;2023-11-18T01:22:52;98779.31;;;11.25;100.00
11830;BME280;5972;42.134;24.718;2023-11-18T01:25:19;98788.22;;;11.25;100.00
11830;BME280;5972;42.134;24.718;2023-11-18T01:27:46;98778.72;;;11.12;100.00
11830;BME280;5972;42.134;24.718;2023-11-18T01:30:13;98790.44;;;11.20;100.00
11830;BME280;5972;42.134;24.718;2023-11-18T01:32:42;98798.09;;;11.14;100.00
11830;BME280;5972;42.134;24.718;2023-11-18T01:35:09;98791.47;;;11.12;100.00
11830;BME280;5972;42.134;24.718;2023-11-18T01:37:37;98777.44;;;11.03;100.00
11830;BME280;5972;42.134;24.718;2023-11-18T01:40:06;98784.00;;;11.02;100.00
11830;BME280;5972;42.134;24.718;2023-11-18T01:42:33;98778.81;;;10.93;100.00
11830;BME280;5972;42.134;24.718;2023-11-18T01:45:00;98778.94;;;11.00;100.00
11830;BME280;5972;42.134;24.718;2023-11-18T01:47:29;98778.88;;;10.97;100.00
11830;BME280;5972;42.134;24.718;2023-11-18T01:50:00;98778.88;;;10.97;100.00
11830;BME280;5972;42.134;24.718;2023-11-18T01:52:31;98789.88;;;10.81;100.00
11830;BME280;5972;42.134;24.718;2023-11-18T01:54:59;98790.09;;;10.72;100.00
11830;BME280;5972;42.134;24.718;2023-11-18T01:57:26;98795.03;;;10.67;100.00
11830;BME280;5972;42.134;24.718;2023-11-18T01:59:53;98787.25;;;10.65;100.00
11830;BME280;5972;42.134;24.718;2023-11-18T02:02:21;98781.75;;;10.58;100.00
11830;BME280;5972;42.134;24.718;2023-11-18T02:04:48;98785.53;;;10.54;100.00
11830;BME280;5972;42.134;24.718;2023-11-18T02:07:16;98777.66;;;10.45;100.00
11830;BME280;5972;42.134;24.718;2023-11-18T02:09:44;98779.59;;;10.45;100.00
11830;BME280;5972;42.134;24.718;2023-11-18T02:12:18;98787.69;;;10.45;100.00
11830;BME280;5972;42.134;24.718;2023-11-18T02:14:48;98789.13;;;10.38;100.00
11830;BME280;5972;42.134;24.718;2023-11-18T02:17:18;98791.78;;;10.35;100.00
11830;BME280;5972;42.134;24.718;2023-11-18T02:19:48;98795.13;;;10.28;100.00
11830;BME280;5972;42.134;24.718;2023-11-18T02:22:17;98798.91;;;10.24;100.00
11830;BME280;5972;42.134;24.718;2023-11-18T02:24:45;98794.44;;;10.12;100.00
11830;BME280;5972;42.134;24.718;2023-11-18T02:27:13;98794.94;;;9.98;100.00
11830;BME280;5972;42.134;24.718;2023-11-18T02:29:42;98792.84;;;9.92;100.00
11830;BME280;5972;42.134;24.718;2023-11-18T02:32:17;98791.72;;;9.93;100.00
11830;BME280;5972;42.134;24.718;2023-11-18T02:34:53;98792.53;;;9.74;100.00
11830;BME280;5972;42.134;24.718;2023-11-18T02:37:23;98795.72;;;9.80;100.00
11830;BME280;5972;42.134;24.718;2023-11-18T02:39:53;98798.28;;;9.73;100.00
11830;BME280;5972;42.134;24.718;2023-11-18T02:42:25;98792.88;;;9.73;100.00
11830;BME280;5972;42.134;24.718;2023-11-18T02:44:53;98804.03;;;9.52;100.00
11830;BME280;5972;42.134;24.718;2023-11-18T02:47:25;98808.66;;;9.51;100.00
11830;BME280;5972;42.134;24.718;2023-11-18T02:49:54;98795.81;;;9.29;100.00
11830;BME280;5972;42.134;24.718;2023-11-18T02:52:21;98810.09;;;9.30;100.00
11830;BME280;5972;42.134;24.718;2023-11-18T02:54:48;98797.75;;;9.29;100.00
11830;BME280;5972;42.134;24.718;2023-11-18T02:57:15;98801.72;;;9.35;100.00
11830;BME280;5972;42.134;24.718;2023-11-18T02:59:43;98823.59;;;9.30;100.00
11830;BME280;5972;42.134;24.718;2023-11-18T03:02:12;98800.47;;;9.13;100.00
11830;BME280;5972;42.134;24.718;2023-11-18T03:04:40;98808.59;;;9.32;100.00
11830;BME280;5972;42.134;24.718;2023-11-18T03:07:10;98793.00;;;9.06;100.00
11830;BME280;5972;42.134;24.718;2023-11-18T03:09:37;98806.56;;;9.10;100.00
11830;BME280;5972;42.134;24.718;2023-11-18T03:12:06;98814.47;;;9.03;100.00
11830;BME280;5972;42.134;24.718;2023-11-18T03:14:33;98806.59;;;8.94;100.00
11830;BME280;5972;42.134;24.718;2023-11-18T03:17:02;98801.78;;;9.03;100.00
11830;BME280;5972;42.134;24.718;2023-11-18T03:19:32;98799.22;;;8.91;100.00
11830;BME280;5972;42.134;24.718;2023-11-18T03:22:00;98806.84;;;8.89;100.00
11830;BME280;5972;42.134;24.718;2023-11-18T03:24:27;98803.72;;;8.87;100.00
11830;BME280;5972;42.134;24.718;2023-11-18T03:26:54;98812.59;;;8.88;100.00
11830;BME280;5972;42.134;24.718;2023-11-18T03:29:21;98806.59;;;8.79;100.00
11830;BME280;5972;42.134;24.718;2023-11-18T03:31:48;98807.38;;;8.79;100.00
11830;BME280;5972;42.134;24.718;2023-11-18T03:34:17;98803.03;;;8.74;100.00
11830;BME280;5972;42.134;24.718;2023-11-18T03:36:45;98812.41;;;8.81;100.00
11830;BME280;5972;42.134;24.718;2023-11-18T03:39:13;98816.09;;;8.72;100.00
11830;BME280;5972;42.134;24.718;2023-11-18T03:41:40;98815.75;;;8.74;100.00
11830;BME280;5972;42.134;24.718;2023-11-18T03:44:10;98819.31;;;8.78;100.00
11830;BME280;5972;42.134;24.718;2023-11-18T03:46:37;98818.84;;;8.76;100.00
11830;BME280;5972;42.134;24.718;2023-11-18T03:49:04;98822.69;;;8.75;100.00
11830;BME280;5972;42.134;24.718;2023-11-18T03:51:32;98818.06;;;8.75;100.00
11830;BME280;5972;42.134;24.718;2023-11-18T03:53:59;98821.47;;;8.72;100.00
11830;BME280;5972;42.134;24.718;2023-11-18T03:56:26;98823.31;;;8.68;100.00
11830;BME280;5972;42.134;24.718;2023-11-18T03:58:54;98823.06;;;8.73;100.00
11830;BME280;5972;42.134;24.718;2023-11-18T04:01:21;98822.59;;;8.71;100.00
11830;BME280;5972;42.134;24.718;2023-11-18T04:03:48;98814.25;;;8.76;100.00
11830;BME280;5972;42.134;24.718;2023-11-18T04:06:15;98810.50;;;8.81;100.00
11830;BME280;5972;42.134;24.718;2023-11-18T04:08:45;98821.13;;;8.74;100.00
11830;BME280;5972;42.134;24.718;2023-11-18T04:11:12;98812.25;;;8.73;100.00
11830;BME280;5972;42.134;24.718;2023-11-18T04:13:39;98788.41;;;8.60;100.00
11830;BME280;5972;42.134;24.718;2023-11-18T04:16:10;98811.22;;;8.78;100.00
11830;BME280;5972;42.134;24.718;2023-11-18T04:18:38;98803.72;;;8.71;100.00
11830;BME280;5972;42.134;24.718;2023-11-18T04:21:05;98804.78;;;8.67;100.00
11830;BME280;5972;42.134;24.718;2023-11-18T04:23:34;98801.88;;;8.75;100.00
11830;BME280;5972;42.134;24.718;2023-11-18T04:26:04;98804.06;;;8.70;100.00
11830;BME280;5972;42.134;24.718;2023-11-18T04:28:31;98822.53;;;8.84;100.00
11830;BME280;5972;42.134;24.718;2023-11-18T04:30:58;98825.56;;;8.82;100.00
11830;BME280;5972;42.134;24.718;2023-11-18T04:33:25;98801.47;;;8.73;100.00
11830;BME280;5972;42.134;24.718;2023-11-18T04:35:52;98826.28;;;8.63;100.00
11830;BME280;5972;42.134;24.718;2023-11-18T04:38:19;98830.09;;;8.62;100.00
11830;BME280;5972;42.134;24.718;2023-11-18T04:40:47;98824.50;;;8.55;100.00
11830;BME280;5972;42.134;24.718;2023-11-18T04:43:15;98843.84;;;8.57;100.00
11830;BME280;5972;42.134;24.718;2023-11-18T04:45:42;98840.25;;;8.53;100.00
11830;BME280;5972;42.134;24.718;2023-11-18T04:48:09;98826.50;;;8.43;100.00
11830;BME280;5972;42.134;24.718;2023-11-18T04:50:39;98859.31;;;8.60;100.00
11830;BME280;5972;42.134;24.718;2023-11-18T04:53:06;98867.66;;;8.55;100.00
11830;BME280;5972;42.134;24.718;2023-11-18T04:55:36;98860.06;;;8.45;100.00
11830;BME280;5972;42.134;24.718;2023-11-18T04:58:03;98876.06;;;8.54;100.00
11830;BME280;5972;42.134;24.718;2023-11-18T05:00:32;98882.06;;;8.47;100.00
11830;BME280;5972;42.134;24.718;2023-11-18T05:02:59;98870.84;;;8.45;100.00
11830;BME280;5972;42.134;24.718;2023-11-18T05:05:26;98837.22;;;8.27;100.00
11830;BME280;5972;42.134;24.718;2023-11-18T05:07:53;98859.09;;;8.38;100.00
11830;BME280;5972;42.134;24.718;2023-11-18T05:10:20;98853.63;;;8.34;100.00
11830;BME280;5972;42.134;24.718;2023-11-18T05:12:47;98866.31;;;8.33;100.00
11830;BME280;5972;42.134;24.718;2023-11-18T05:15:21;98857.91;;;8.23;100.00
11830;BME280;5972;42.134;24.718;2023-11-18T05:17:51;98839.25;;;8.02;100.00
11830;BME280;5972;42.134;24.718;2023-11-18T05:20:19;98846.13;;;8.15;100.00
11830;BME280;5972;42.134;24.718;2023-11-18T05:22:46;98850.66;;;8.11;100.00
11830;BME280;5972;42.134;24.718;2023-11-18T05:25:13;98852.91;;;8.09;100.00
11830;BME280;5972;42.134;24.718;2023-11-18T05:27:40;98834.81;;;8.10;100.00
11830;BME280;5972;42.134;24.718;2023-11-18T05:30:08;98829.69;;;8.05;100.00
11830;BME280;5972;42.134;24.718;2023-11-18T05:32:35;98828.56;;;8.06;100.00
11830;BME280;5972;42.134;24.718;2023-11-18T05:35:04;98833.16;;;8.05;100.00
11830;BME280;5972;42.134;24.718;2023-11-18T05:37:31;98849.34;;;8.05;100.00
11830;BME280;5972;42.134;24.718;2023-11-18T05:40:01;98856.88;;;8.00;100.00
11830;BME280;5972;42.134;24.718;2023-11-18T05:42:32;98863.50;;;8.02;100.00
11830;BME280;5972;42.134;24.718;2023-11-18T05:45:01;98886.75;;;7.94;100.00
11830;BME280;5972;42.134;24.718;2023-11-18T05:47:28;98875.94;;;8.07;100.00
11830;BME280;5972;42.134;24.718;2023-11-18T05:49:55;98891.00;;;7.96;100.00
11830;BME280;5972;42.134;24.718;2023-11-18T05:52:23;98893.94;;;7.90;100.00
11830;BME280;5972;42.134;24.718;2023-11-18T05:54:50;98900.34;;;7.86;100.00
11830;BME280;5972;42.134;24.718;2023-11-18T05:57:17;98898.09;;;7.88;100.00
11830;BME280;5972;42.134;24.718;2023-11-18T05:59:45;98884.63;;;7.88;100.00
11830;BME280;5972;42.134;24.718;2023-11-18T06:02:13;98869.03;;;7.81;100.00
11830;BME280;5972;42.134;24.718;2023-11-18T06:04:43;98877.13;;;7.81;100.00
11830;BME280;5972;42.134;24.718;2023-11-18T06:07:10;98902.59;;;7.84;100.00
11830;BME280;5972;42.134;24.718;2023-11-18T06:12:25;98915.63;;;7.82;100.00
11830;BME280;5972;42.134;24.718;2023-11-18T06:14:52;98916.84;;;7.84;100.00
11830;BME280;5972;42.134;24.718;2023-11-18T06:17:19;98931.19;;;7.88;100.00
11830;BME280;5972;42.134;24.718;2023-11-18T06:19:47;98943.09;;;7.87;100.00
11830;BME280;5972;42.134;24.718;2023-11-18T06:22:14;98916.06;;;7.84;100.00
11830;BME280;5972;42.134;24.718;2023-11-18T06:24:42;98915.19;;;7.80;100.00
11830;BME280;5972;42.134;24.718;2023-11-18T06:27:09;98910.25;;;7.70;100.00
11830;BME280;5972;42.134;24.718;2023-11-18T06:29:36;98918.53;;;7.89;100.00
11830;BME280;5972;42.134;24.718;2023-11-18T06:32:03;98927.50;;;7.81;100.00
11830;BME280;5972;42.134;24.718;2023-11-18T06:34:31;98930.19;;;7.81;100.00
11830;BME280;5972;42.134;24.718;2023-11-18T06:36:58;98914.03;;;7.81;100.00
11830;BME280;5972;42.134;24.718;2023-11-18T06:39:25;98921.44;;;7.84;100.00
11830;BME280;5972;42.134;24.718;2023-11-18T06:41:56;98904.19;;;7.73;100.00
11830;BME280;5972;42.134;24.718;2023-11-18T06:44:23;98925.28;;;7.83;100.00
11830;BME280;5972;42.134;24.718;2023-11-18T06:46:50;98921.13;;;7.85;100.00
11830;BME280;5972;42.134;24.718;2023-11-18T06:49:17;98946.47;;;7.84;100.00
11830;BME280;5972;42.134;24.718;2023-11-18T06:51:45;98930.41;;;7.88;100.00
11830;BME280;5972;42.134;24.718;2023-11-18T06:54:12;98938.16;;;7.89;100.00
11830;BME280;5972;42.134;24.718;2023-11-18T06:56:40;98935.91;;;7.91;100.00
11830;BME280;5972;42.134;24.718;2023-11-18T06:59:09;98948.94;;;7.89;100.00
11830;BME280;5972;42.134;24.718;2023-11-18T07:01:38;98961.16;;;7.87;100.00
11830;BME280;5972;42.134;24.718;2023-11-18T07:04:06;98977.63;;;7.98;100.00
11830;BME280;5972;42.134;24.718;2023-11-18T07:06:35;98966.69;;;7.90;100.00
11830;BME280;5972;42.134;24.718;2023-11-18T07:09:04;98962.97;;;7.95;100.00
11830;BME280;5972;42.134;24.718;2023-11-18T07:11:38;98960.81;;;7.88;100.00
11830;BME280;5972;42.134;24.718;2023-11-18T07:14:06;98948.25;;;7.92;100.00
11830;BME280;5972;42.134;24.718;2023-11-18T07:16:37;98947.78;;;8.03;100.00
11830;BME280;5972;42.134;24.718;2023-11-18T07:19:04;98965.66;;;7.95;99.89
11830;BME280;5972;42.134;24.718;2023-11-18T07:21:31;98950.59;;;8.06;97.86
11830;BME280;5972;42.134;24.718;2023-11-18T07:23:59;98931.19;;;7.88;97.37
11830;BME280;5972;42.134;24.718;2023-11-18T07:26:25;98942.38;;;8.03;95.67
11830;BME280;5972;42.134;24.718;2023-11-18T07:28:53;98954.06;;;8.07;95.31
11830;BME280;5972;42.134;24.718;2023-11-18T07:31:20;98944.31;;;8.02;93.88
11830;BME280;5972;42.134;24.718;2023-11-18T07:33:49;98943.97;;;8.04;94.48
11830;BME280;5972;42.134;24.718;2023-11-18T07:36:16;98937.91;;;8.07;92.95
11830;BME280;5972;42.134;24.718;2023-11-18T07:38:45;98946.53;;;8.12;91.54
11830;BME280;5972;42.134;24.718;2023-11-18T07:41:12;98938.50;;;8.28;90.27
11830;BME280;5972;42.134;24.718;2023-11-18T07:43:49;98928.75;;;8.23;88.66
11830;BME280;5972;42.134;24.718;2023-11-18T07:46:16;98928.06;;;8.39;88.76
11830;BME280;5972;42.134;24.718;2023-11-18T07:48:43;98916.56;;;8.42;90.16
11830;BME280;5972;42.134;24.718;2023-11-18T07:51:12;98923.28;;;8.48;88.28
11830;BME280;5972;42.134;24.718;2023-11-18T07:53:40;98916.16;;;8.40;85.31
11830;BME280;5972;42.134;24.718;2023-11-18T07:56:08;98914.53;;;8.51;85.83
11830;BME280;5972;42.134;24.718;2023-11-18T07:58:36;98916.34;;;8.47;84.21
11830;BME280;5972;42.134;24.718;2023-11-18T08:01:04;98915.31;;;8.51;83.81
11830;BME280;5972;42.134;24.718;2023-11-18T08:03:33;98921.94;;;8.69;83.98
11830;BME280;5972;42.134;24.718;2023-11-18T08:06:00;98921.53;;;8.67;82.68
11830;BME280;5972;42.134;24.718;2023-11-18T08:08:29;98930.47;;;8.71;81.55
11830;BME280;5972;42.134;24.718;2023-11-18T08:10:56;98919.44;;;8.76;81.07
11830;BME280;5972;42.134;24.718;2023-11-18T08:13:23;98929.97;;;8.82;81.20
11830;BME280;5972;42.134;24.718;2023-11-18T08:15:50;98954.09;;;8.90;78.39
11830;BME280;5972;42.134;24.718;2023-11-18T08:18:17;98936.06;;;8.79;76.10
11830;BME280;5972;42.134;24.718;2023-11-18T08:20:47;98921.28;;;8.72;76.15
11830;BME280;5972;42.134;24.718;2023-11-18T08:23:14;98938.25;;;8.73;77.18
11830;BME280;5972;42.134;24.718;2023-11-18T08:28:27;98943.09;;;8.67;76.29
11830;BME280;5972;42.134;24.718;2023-11-18T08:30:54;98924.63;;;8.69;77.65
11830;BME280;5972;42.134;24.718;2023-11-18T08:33:21;98932.34;;;8.99;77.70
11830;BME280;5972;42.134;24.718;2023-11-18T08:35:49;98915.63;;;8.93;75.82
11830;BME280;5972;42.134;24.718;2023-11-18T08:38:16;98945.06;;;8.98;75.69
11830;BME280;5972;42.134;24.718;2023-11-18T08:40:44;98948.34;;;8.92;75.14
11830;BME280;5972;42.134;24.718;2023-11-18T08:43:14;98947.84;;;9.02;73.98
11830;BME280;5972;42.134;24.718;2023-11-18T08:45:41;98925.91;;;9.03;74.54
11830;BME280;5972;42.134;24.718;2023-11-18T08:48:08;98958.19;;;9.00;73.44
11830;BME280;5972;42.134;24.718;2023-11-18T08:50:37;98960.13;;;8.99;72.41
11830;BME280;5972;42.134;24.718;2023-11-18T08:53:05;98964.84;;;9.02;73.33
11830;BME280;5972;42.134;24.718;2023-11-18T08:55:35;98951.16;;;9.11;74.82
11830;BME280;5972;42.134;24.718;2023-11-18T08:58:17;98954.97;;;8.94;73.12
11830;BME280;5972;42.134;24.718;2023-11-18T09:00:55;98945.31;;;9.09;72.82
11830;BME280;5972;42.134;24.718;2023-11-18T09:03:30;98923.72;;;9.09;71.90
11830;BME280;5972;42.134;24.718;2023-11-18T09:06:01;98919.03;;;9.06;69.99
11830;BME280;5972;42.134;24.718;2023-11-18T09:08:31;98936.16;;;8.98;71.24
11830;BME280;5972;42.134;24.718;2023-11-18T09:11:00;98912.16;;;8.93;69.32
11830;BME280;5972;42.134;24.718;2023-11-18T09:13:29;98917.31;;;9.13;69.41
11830;BME280;5972;42.134;24.718;2023-11-18T09:15:57;98918.00;;;9.10;67.85
11830;BME280;5972;42.134;24.718;2023-11-18T09:18:26;98918.69;;;9.39;67.66
11830;BME280;5972;42.134;24.718;2023-11-18T09:20:53;98937.47;;;9.51;65.97
11830;BME280;5972;42.134;24.718;2023-11-18T09:23:22;98912.22;;;9.43;64.34
11830;BME280;5972;42.134;24.718;2023-11-18T09:25:51;98914.56;;;9.60;64.40
11830;BME280;5972;42.134;24.718;2023-11-18T09:28:19;98900.81;;;9.50;64.48
11830;BME280;5972;42.134;24.718;2023-11-18T09:30:47;98921.19;;;9.47;63.03
11830;BME280;5972;42.134;24.718;2023-11-18T09:33:20;98902.28;;;9.47;64.84
11830;BME280;5972;42.134;24.718;2023-11-18T09:36:00;98912.84;;;9.52;65.91
11830;BME280;5972;42.134;24.718;2023-11-18T09:38:29;98905.75;;;9.48;65.33
11830;BME280;5972;42.134;24.718;2023-11-18T09:40:57;98899.84;;;9.42;65.84
11830;BME280;5972;42.134;24.718;2023-11-18T09:43:29;98888.44;;;9.49;65.64
11830;BME280;5972;42.134;24.718;2023-11-18T09:46:04;98896.88;;;9.47;64.99
11830;BME280;5972;42.134;24.718;2023-11-18T09:48:34;98903.25;;;9.39;64.83
11830;BME280;5972;42.134;24.718;2023-11-18T09:51:07;98891.09;;;9.30;65.64
11830;BME280;5972;42.134;24.718;2023-11-18T09:53:37;98889.78;;;9.24;66.03
11830;BME280;5972;42.134;24.718;2023-11-18T09:56:07;98877.16;;;9.12;65.50
11830;BME280;5972;42.134;24.718;2023-11-18T09:58:48;98889.44;;;9.09;65.80
11830;BME280;5972;42.134;24.718;2023-11-18T10:01:21;98890.22;;;9.10;65.19
11830;BME280;5972;42.134;24.718;2023-11-18T10:03:53;98865.84;;;9.06;65.83
11830;BME280;5972;42.134;24.718;2023-11-18T10:06:24;98881.78;;;9.11;65.00
11830;BME280;5972;42.134;24.718;2023-11-18T10:08:54;98887.97;;;9.12;66.04
11830;BME280;5972;42.134;24.718;2023-11-18T10:11:21;98888.22;;;9.07;65.81
11830;BME280;5972;42.134;24.718;2023-11-18T10:13:48;98877.44;;;9.07;65.29
11830;BME280;5972;42.134;24.718;2023-11-18T10:16:15;98874.81;;;9.10;64.82
11830;BME280;5972;42.134;24.718;2023-11-18T10:18:45;98885.34;;;9.15;65.73
11830;BME280;5972;42.134;24.718;2023-11-18T10:21:14;98905.97;;;9.24;65.70
11830;BME280;5972;42.134;24.718;2023-11-18T10:23:58;98903.44;;;9.46;63.98
11830;BME280;5972;42.134;24.718;2023-11-18T10:26:27;98881.41;;;9.44;64.77
11830;BME280;5972;42.134;24.718;2023-11-18T10:29:02;98891.56;;;9.51;63.91
11830;BME280;5972;42.134;24.718;2023-11-18T10:31:32;98873.72;;;9.46;63.88
11830;BME280;5972;42.134;24.718;2023-11-18T10:34:02;98872.50;;;9.44;64.34
11830;BME280;5972;42.134;24.718;2023-11-18T10:36:30;98865.25;;;9.48;64.58
11830;BME280;5972;42.134;24.718;2023-11-18T10:39:01;98847.88;;;9.45;62.59
11830;BME280;5972;42.134;24.718;2023-11-18T10:41:40;98838.75;;;9.69;63.10
11830;BME280;5972;42.134;24.718;2023-11-18T10:44:09;98841.09;;;10.28;60.51
11830;BME280;5972;42.134;24.718;2023-11-18T10:46:40;98844.47;;;10.87;58.42
11830;BME280;5972;42.134;24.718;2023-11-18T10:49:08;98846.72;;;11.34;55.35
11830;BME280;5972;42.134;24.718;2023-11-18T10:51:36;98820.72;;;11.55;53.53
11830;BME280;5972;42.134;24.718;2023-11-18T10:54:05;98831.31;;;11.94;52.64
11830;BME280;5972;42.134;24.718;2023-11-18T10:56:46;98839.78;;;11.89;52.23
11830;BME280;5972;42.134;24.718;2023-11-18T10:59:13;98848.81;;;12.33;50.55
11830;BME280;5972;42.134;24.718;2023-11-18T11:01:42;98835.06;;;12.53;49.67
11830;BME280;5972;42.134;24.718;2023-11-18T11:04:11;98844.59;;;12.36;50.59
11830;BME280;5972;42.134;24.718;2023-11-18T11:06:44;98838.28;;;12.28;50.09
11830;BME280;5972;42.134;24.718;2023-11-18T11:09:17;98847.09;;;12.55;49.51
11830;BME280;5972;42.134;24.718;2023-11-18T11:11:49;98842.34;;;12.45;49.83
11830;BME280;5972;42.134;24.718;2023-11-18T11:14:16;98831.03;;;12.39;50.05
11830;BME280;5972;42.134;24.718;2023-11-18T11:16:52;98842.22;;;12.31;50.16
11830;BME280;5972;42.134;24.718;2023-11-18T11:19:25;98840.31;;;12.01;50.35
11830;BME280;5972;42.134;24.718;2023-11-18T11:22:01;98855.31;;;11.39;51.51
11830;BME280;5972;42.134;24.718;2023-11-18T11:24:44;98847.16;;;10.87;52.42
11830;BME280;5972;42.134;24.718;2023-11-18T11:27:22;98843.09;;;10.54;53.37
11830;BME280;5972;42.134;24.718;2023-11-18T11:29:59;98857.09;;;10.37;54.65
11830;BME280;5972;42.134;24.718;2023-11-18T11:32:38;98832.19;;;10.09;56.81
11830;BME280;5972;42.134;24.718;2023-11-18T11:35:16;98856.50;;;10.09;56.55
11830;BME280;5972;42.134;24.718;2023-11-18T11:37:47;98854.16;;;9.88;57.89
11830;BME280;5972;42.134;24.718;2023-11-18T11:40:16;98837.94;;;9.88;58.46
11830;BME280;5972;42.134;24.718;2023-11-18T11:42:48;98841.72;;;9.83;59.24
11830;BME280;5972;42.134;24.718;2023-11-18T11:45:21;98857.28;;;9.71;59.05
11830;BME280;5972;42.134;24.718;2023-11-18T11:47:54;98845.34;;;9.72;58.37
11830;BME280;5972;42.134;24.718;2023-11-18T11:50:48;98848.31;;;9.67;57.91
11830;BME280;5972;42.134;24.718;2023-11-18T11:53:22;98838.47;;;9.58;58.89
11830;BME280;5972;42.134;24.718;2023-11-18T11:55:53;98854.69;;;9.58;58.76
11830;BME280;5972;42.134;24.718;2023-11-18T11:58:31;98852.88;;;9.82;59.24
11830;BME280;5972;42.134;24.718;2023-11-18T12:00:59;98854.41;;;10.18;56.93
11830;BME280;5972;42.134;24.718;2023-11-18T12:03:33;98845.00;;;10.31;56.21
11830;BME280;5972;42.134;24.718;2023-11-18T12:06:07;98790.16;;;10.11;55.05
11830;BME280;5972;42.134;24.718;2023-11-18T12:08:35;98862.22;;;10.42;54.84
11830;BME280;5972;42.134;24.718;2023-11-18T12:11:04;98861.03;;;10.20;55.46
11830;BME280;5972;42.134;24.718;2023-11-18T12:13:37;98860.31;;;10.23;55.89
11830;BME280;5972;42.134;24.718;2023-11-18T12:16:06;98864.00;;;9.96;55.93
11830;BME280;5972;42.134;24.718;2023-11-18T12:18:36;98875.72;;;9.84;56.41
11830;BME280;5972;42.134;24.718;2023-11-18T12:21:04;98878.88;;;9.71;57.27
11830;BME280;5972;42.134;24.718;2023-11-18T12:23:33;98890.47;;;9.71;58.82
11830;BME280;5972;42.134;24.718;2023-11-18T12:26:38;98868.84;;;9.36;58.88
11830;BME280;5972;42.134;24.718;2023-11-18T12:29:30;98880.03;;;9.35;59.24
11830;BME280;5972;42.134;24.718;2023-11-18T12:31:58;98869.25;;;9.19;59.60
11830;BME280;5972;42.134;24.718;2023-11-18T12:34:51;98871.00;;;9.11;61.00
11830;BME280;5972;42.134;24.718;2023-11-18T12:38:00;98874.47;;;8.96;61.59
11830;BME280;5972;42.134;24.718;2023-11-18T12:40:52;98860.09;;;8.92;62.31
11830;BME280;5972;42.134;24.718;2023-11-18T12:43:42;98870.81;;;8.89;61.96
11830;BME280;5972;42.134;24.718;2023-11-18T12:46:40;98886.91;;;8.85;62.29
11830;BME280;5972;42.134;24.718;2023-11-18T12:49:15;98872.91;;;8.80;62.83
11830;BME280;5972;42.134;24.718;2023-11-18T12:51:45;98864.91;;;8.83;62.56
11830;BME280;5972;42.134;24.718;2023-11-18T12:54:14;98857.47;;;8.64;62.73
11830;BME280;5972;42.134;24.718;2023-11-18T12:56:46;98870.38;;;8.71;63.74
11830;BME280;5972;42.134;24.718;2023-11-18T12:59:16;98872.19;;;8.83;63.40
11830;BME280;5972;42.134;24.718;2023-11-18T13:01:44;98879.78;;;8.77;63.89
11830;BME280;5972;42.134;24.718;2023-11-18T13:04:23;98880.56;;;8.77;64.02
11830;BME280;5972;42.134;24.718;2023-11-18T13:06:53;98875.88;;;8.74;63.61
11830;BME280;5972;42.134;24.718;2023-11-18T13:09:22;98902.38;;;8.72;64.79
11830;BME280;5972;42.134;24.718;2023-11-18T13:11:58;98888.47;;;8.70;63.92
11830;BME280;5972;42.134;24.718;2023-11-18T13:14:31;98891.59;;;8.72;63.49
11830;BME280;5972;42.134;24.718;2023-11-18T13:17:09;98896.13;;;8.68;64.41
11830;BME280;5972;42.134;24.718;2023-11-18T13:19:39;98903.50;;;8.71;63.55
11830;BME280;5972;42.134;24.718;2023-11-18T13:22:08;98893.06;;;8.70;63.94